CheckWX is a tool to help pilots better visualize weather data.  It is not intended as a substitute for an official pre-flight weather briefing.

23:46:19 UTC

EGJA METAR
Alderney Airport
Saint Anne, Guernsey
Current

6 hours ago

EGJA 091750Z 26015KT 9999 BKN004 15/14 Q1014
Observed
Jul-9 @ 17:50 UTC
Wind
  • 260° at 15 KTS
Visibility
10,000+ meters
Flight Rules
LIFR
Cloud Levels
  • Broken at 400' AGL
Temperature
15°C / 59°F
Dewpoint
14°C / 57°F
Humidity
94%
Altimeter
29.94" Hg
Pressure
1013.92 hPa
Previous

6 hours ago

EGJA 091720Z 25014KT 9999 SCT005 16/14 Q1014
Observed
Jul-9 @ 17:20 UTC
Wind
  • 250° at 14 KTS
Visibility
10,000+ meters
Flight Rules
VFR
Cloud Levels
  • Scattered at 500' AGL
Temperature
16°C / 61°F
Dewpoint
14°C / 57°F
Humidity
88%
Altimeter
29.94" Hg
Pressure
1013.92 hPa
Previous

7 hours ago

EGJA 091650Z 26013KT 9999 FEW004 SCT030 16/15 Q1014
Observed
Jul-9 @ 16:50 UTC
Wind
  • 260° at 13 KTS
Visibility
10,000+ meters
Flight Rules
VFR
Cloud Levels
  • Few at 400' AGL
  • Scattered at 3,000' AGL
Temperature
16°C / 61°F
Dewpoint
15°C / 59°F
Humidity
94%
Altimeter
29.94" Hg
Pressure
1013.92 hPa